Monastir-Skanes, Tunisia
Current Conditions -  °F | °C
As of 1:00 PM on Friday 28 Nov 2014 (Local Time) from DTMB Reporting Station
Clear Clear  
Wind Chill: 77°   Ceiling: Unl
Heat Index: 78°   Visibility: 6mi
Dew Point: 54°   Wind: 7mph
Humidity: 44%   Direction: 170°S
Pressure: 29.68"   Gusts: NA
Location:  35.67°N, 10.75°E
Report Text: DTMB 281200Z 17006KT 140V220 CAVOK 25/12 Q1005 NOSIG
Loading
Personal Weather Stations






























Interactive Weather Map New forecast layout! Learn more

10-Day Weather Forecast

Advertisements
Track Severe Weather on mobile